createdAt,value
2018-09-26T00:01:22.816Z,63.62
2018-09-26T00:04:08.547Z,65.92
2018-09-26T00:06:36.252Z,58.96
2018-09-26T00:09:05.823Z,59.55
2018-09-26T00:11:33.395Z,54.69
2018-09-26T00:14:01.066Z,57.18
2018-09-26T00:16:28.604Z,54.03
2018-09-26T00:18:56.180Z,57.25
2018-09-26T00:21:23.719Z,56.59
2018-09-26T00:23:51.335Z,61.51
2018-09-26T00:26:18.849Z,60.26
2018-09-26T00:28:46.526Z,66.74
2018-09-26T00:31:14.043Z,59.97
2018-09-26T00:33:41.592Z,58.21
2018-09-26T00:36:09.199Z,61.22
2018-09-26T00:38:36.863Z,60.53
2018-09-26T00:41:04.408Z,62.21
2018-09-26T00:43:31.976Z,63.17
2018-09-26T00:45:59.705Z,61.55
2018-09-26T00:48:27.275Z,61.93
2018-09-26T00:50:54.825Z,62.61
2018-09-26T00:53:22.410Z,62.10
2018-09-26T00:55:49.995Z,70.44
2018-09-26T00:58:17.600Z,65.75
2018-09-26T01:00:45.182Z,60.07
2018-09-26T01:03:12.918Z,62.14
2018-09-26T01:05:40.612Z,63.13
2018-09-26T01:08:08.209Z,68.25
2018-09-26T01:10:35.922Z,65.28
2018-09-26T01:13:03.516Z,60.07
2018-09-26T01:15:31.185Z,61.07
2018-09-26T01:17:58.685Z,60.64
2018-09-26T01:20:26.291Z,62.61
2018-09-26T01:22:54.914Z,62.31
2018-09-26T01:25:22.503Z,63.70
2018-09-26T01:27:50.116Z,67.35
2018-09-26T01:30:17.660Z,59.82
2018-09-26T01:32:45.339Z,61.10
2018-09-26T01:35:12.988Z,68.80
2018-09-26T01:37:40.550Z,62.40
2018-09-26T01:40:08.292Z,64.26
2018-09-26T01:42:36.077Z,62.40
2018-09-26T01:45:03.652Z,62.94
2018-09-26T01:47:31.357Z,62.74
2018-09-26T01:49:58.872Z,65.48
2018-09-26T01:52:26.458Z,65.47
2018-09-26T01:54:54.175Z,70.70
2018-09-26T01:57:21.833Z,70.76
2018-09-26T01:59:49.364Z,60.43
2018-09-26T02:02:17.079Z,61.48
2018-09-26T02:04:45.072Z,61.89
2018-09-26T02:07:12.792Z,63.86
2018-09-26T02:09:40.365Z,64.93
2018-09-26T02:12:08.215Z,71.00
2018-09-26T02:14:35.789Z,62.69
2018-09-26T02:17:03.407Z,63.40
2018-09-26T02:19:31.003Z,66.17
2018-09-26T02:21:58.691Z,67.13
2018-09-26T02:24:26.227Z,63.59
2018-09-26T02:26:53.786Z,69.79
2018-09-26T02:29:21.454Z,64.41
2018-09-26T02:31:49.011Z,67.44
2018-09-26T02:34:16.584Z,67.10
2018-09-26T02:36:44.174Z,64.09
2018-09-26T02:39:11.746Z,66.01
2018-09-26T02:41:39.338Z,65.45
2018-09-26T02:44:07.028Z,61.61
2018-09-26T02:46:34.571Z,64.84
2018-09-26T02:49:07.030Z,64.05
2018-09-26T02:51:36.531Z,70.87
2018-09-26T02:54:04.349Z,68.13
2018-09-26T02:56:31.888Z,63.58
2018-09-26T02:58:59.634Z,63.13
2018-09-26T03:01:27.304Z,69.56
2018-09-26T03:03:54.897Z,72.98
2018-09-26T03:06:22.491Z,64.66
2018-09-26T03:08:50.179Z,60.04
2018-09-26T03:11:17.838Z,60.79
2018-09-26T03:13:45.365Z,62.55
2018-09-26T03:16:12.981Z,64.78
2018-09-26T03:18:40.590Z,74.50
2018-09-26T03:21:08.205Z,63.72
2018-09-26T03:23:36.017Z,70.80
2018-09-26T03:26:03.656Z,68.73
2018-09-26T03:28:31.314Z,64.18
2018-09-26T03:30:58.862Z,66.40
2018-09-26T03:33:27.523Z,71.09
2018-09-26T03:35:55.126Z,66.55
2018-09-26T03:38:22.679Z,72.72
2018-09-26T03:40:50.319Z,68.10
2018-09-26T03:43:17.894Z,76.60
2018-09-26T03:45:45.476Z,68.04
2018-09-26T03:48:13.067Z,72.49
2018-09-26T03:50:40.864Z,69.20
2018-09-26T03:53:08.452Z,68.41
2018-09-26T03:55:36.004Z,62.41
2018-09-26T03:58:03.681Z,66.75
2018-09-26T04:00:31.397Z,62.08
2018-09-26T04:02:59.076Z,62.80
2018-09-26T04:05:26.658Z,64.41
2018-09-26T04:07:54.263Z,65.39
2018-09-26T04:10:21.860Z,66.74
2018-09-26T04:12:49.839Z,67.53
2018-09-26T04:15:17.409Z,69.22
2018-09-26T04:17:45.084Z,70.15
2018-09-26T04:20:12.837Z,70.61
2018-09-26T04:22:40.634Z,71.86
2018-09-26T04:25:08.162Z,72.42
2018-09-26T04:27:35.821Z,73.01
2018-09-26T04:30:03.479Z,73.95
2018-09-26T04:32:31.042Z,74.36
2018-09-26T04:34:58.582Z,74.99
2018-09-26T04:37:26.210Z,75.06
2018-09-26T04:39:53.808Z,75.17
2018-09-26T04:42:21.396Z,75.75
2018-09-26T04:44:49.050Z,76.05
2018-09-26T04:47:16.797Z,76.42
2018-09-26T04:49:44.355Z,77.06
2018-09-26T04:52:12.002Z,77.76
2018-09-26T04:54:39.590Z,78.08
2018-09-26T04:57:07.107Z,78.35
2018-09-26T04:59:34.668Z,78.62
2018-09-26T05:02:03.255Z,79.49
2018-09-26T05:04:30.943Z,80.29
2018-09-26T05:06:58.466Z,81.11
2018-09-26T05:09:26.173Z,81.48
2018-09-26T05:11:53.723Z,87.26
2018-09-26T05:14:21.326Z,82.91
2018-09-26T05:16:49.050Z,83.09
2018-09-26T05:19:16.694Z,83.30
2018-09-26T05:21:44.240Z,82.97
2018-09-26T05:24:11.798Z,83.00
2018-09-26T05:26:39.562Z,83.06
2018-09-26T05:29:07.121Z,82.88
2018-09-26T05:31:34.777Z,86.43
2018-09-26T05:34:02.449Z,81.15
2018-09-26T05:36:30.082Z,80.63
2018-09-26T05:38:57.704Z,80.45
2018-09-26T05:41:25.237Z,94.89
2018-09-26T05:43:52.804Z,81.65
2018-09-26T05:46:20.399Z,66.17
2018-09-26T05:48:48.496Z,59.05
2018-09-26T05:51:16.200Z,55.04
2018-09-26T05:59:12.608Z,45.15
2018-09-26T06:01:49.642Z,50.57
2018-09-26T06:04:17.333Z,55.31
2018-09-26T06:06:44.901Z,52.18
2018-09-26T06:09:13.772Z,56.86
2018-09-26T06:11:41.738Z,59.40
2018-09-26T06:14:10.160Z,62.59
2018-09-26T06:16:38.007Z,64.69
2018-09-26T06:21:50.861Z,68.41
2018-09-26T06:24:18.469Z,69.75
2018-09-26T06:26:46.058Z,69.79
2018-09-26T06:29:13.576Z,70.75
2018-09-26T06:31:41.259Z,71.72
2018-09-26T06:34:08.829Z,72.03
2018-09-26T06:36:36.487Z,72.56
2018-09-26T06:39:04.876Z,73.26
2018-09-26T06:41:32.584Z,73.54
2018-09-26T06:44:00.106Z,80.45
2018-09-26T06:46:27.645Z,69.50
2018-09-26T06:48:55.219Z,69.27
2018-09-26T06:51:22.831Z,69.80
2018-09-26T06:53:50.349Z,70.54
2018-09-26T06:56:17.876Z,71.24
2018-09-26T06:58:45.587Z,71.82
2018-09-26T07:01:13.176Z,92.34
2018-09-26T07:03:40.960Z,69.03
2018-09-26T07:06:08.673Z,69.25
2018-09-26T07:08:36.942Z,65.97
2018-09-26T07:11:04.576Z,65.16
2018-09-26T07:13:32.146Z,65.32
2018-09-26T07:15:59.658Z,65.67
2018-09-26T07:18:27.208Z,65.47
2018-09-26T07:20:54.775Z,64.73
2018-09-26T07:23:22.511Z,62.30
2018-09-26T07:25:50.227Z,61.18
2018-09-26T07:28:17.896Z,61.12
2018-09-26T07:30:45.471Z,60.70
2018-09-26T07:35:57.140Z,58.94
2018-09-26T07:38:24.689Z,58.63
2018-09-26T07:40:52.284Z,58.54
2018-09-26T07:43:19.864Z,53.97
2018-09-26T07:45:47.403Z,53.48
2018-09-26T07:48:15.162Z,53.15
2018-09-26T07:50:42.741Z,55.84
2018-09-26T07:53:10.454Z,56.44
2018-09-26T07:55:37.895Z,56.98
2018-09-26T07:58:05.712Z,56.67
2018-09-26T08:00:33.306Z,55.86
2018-09-26T08:03:00.775Z,56.63
2018-09-26T08:05:28.365Z,55.17
2018-09-26T08:07:56.129Z,53.07
2018-09-26T08:10:23.700Z,51.93
2018-09-26T08:12:51.238Z,51.33
2018-09-26T08:15:18.843Z,49.64
2018-09-26T08:17:46.455Z,49.88
2018-09-26T08:20:14.274Z,49.20
2018-09-26T08:22:41.835Z,48.18
2018-09-26T08:25:09.353Z,47.50
2018-09-26T08:27:36.967Z,45.06
2018-09-26T08:30:04.612Z,45.53
2018-09-26T08:32:32.195Z,44.61
2018-09-26T08:34:59.770Z,43.86
2018-09-26T08:37:27.339Z,43.62
2018-09-26T08:39:54.915Z,41.91
2018-09-26T08:42:22.451Z,43.46
2018-09-26T08:44:50.030Z,47.55
2018-09-26T08:47:17.638Z,52.64
2018-09-26T08:49:45.182Z,48.63
2018-09-26T08:52:12.820Z,48.10
2018-09-26T08:54:40.338Z,44.67
2018-09-26T08:57:08.015Z,44.02
2018-09-26T08:59:35.602Z,45.62
2018-09-26T09:02:03.312Z,44.62
2018-09-26T09:04:30.874Z,44.85
2018-09-26T09:06:58.442Z,43.00
2018-09-26T09:09:25.991Z,44.91
2018-09-26T09:11:53.562Z,38.75
2018-09-26T09:14:21.223Z,39.62
2018-09-26T09:16:48.825Z,45.60
2018-09-26T09:19:16.375Z,44.49
2018-09-26T09:21:43.896Z,39.62
2018-09-26T09:24:11.431Z,39.38
2018-09-26T09:26:39.080Z,40.45
2018-09-26T09:29:06.649Z,45.28
2018-09-26T09:31:34.229Z,41.69
2018-09-26T09:34:02.806Z,42.58
2018-09-26T09:36:30.372Z,39.38
2018-09-26T09:38:57.921Z,40.09
2018-09-26T09:41:25.499Z,35.81
2018-09-26T09:43:53.102Z,41.18
2018-09-26T09:46:20.613Z,44.99
2018-09-26T09:48:48.361Z,35.74
2018-09-26T09:51:15.922Z,37.53
2018-09-26T09:53:43.501Z,42.78
2018-09-26T09:56:11.175Z,40.37
2018-09-26T09:58:38.682Z,43.83
2018-09-26T10:01:11.897Z,41.20
2018-09-26T10:03:39.919Z,40.37
2018-09-26T10:06:07.478Z,39.21
2018-09-26T10:08:35.039Z,42.59
2018-09-26T10:11:02.572Z,41.67
2018-09-26T10:13:30.145Z,41.37
2018-09-26T10:15:57.702Z,40.48
2018-09-26T10:18:25.322Z,41.58
2018-09-26T10:20:52.891Z,41.26
2018-09-26T10:23:20.550Z,39.51
2018-09-26T10:25:48.117Z,41.39
2018-09-26T10:28:15.922Z,40.01
2018-09-26T10:30:43.882Z,38.15
2018-09-26T10:33:11.403Z,32.02
2018-09-26T10:35:39.188Z,35.47
2018-09-26T10:38:06.845Z,35.87
2018-09-26T10:40:34.420Z,35.13
2018-09-26T10:43:02.038Z,36.82
2018-09-26T10:45:29.938Z,34.40
2018-09-26T10:47:57.502Z,33.90
2018-09-26T10:50:25.311Z,34.98
2018-09-26T10:52:53.148Z,33.39
2018-09-26T10:55:20.811Z,34.63
2018-09-26T10:57:48.515Z,34.77
2018-09-26T11:00:16.096Z,35.30
2018-09-26T11:02:43.710Z,34.62
2018-09-26T11:05:11.344Z,34.40
2018-09-26T11:07:38.938Z,35.23
2018-09-26T11:10:06.671Z,34.98
2018-09-26T11:12:34.336Z,36.38
2018-09-26T11:15:01.878Z,34.98
2018-09-26T11:17:29.462Z,36.05
2018-09-26T11:19:56.993Z,35.79
2018-09-26T11:22:24.579Z,34.82
2018-09-26T11:24:52.053Z,34.61
2018-09-26T11:27:19.709Z,41.99
2018-09-26T11:29:47.323Z,33.93
2018-09-26T11:32:15.073Z,32.26
2018-09-26T11:34:42.726Z,32.20
2018-09-26T11:37:10.328Z,31.80
2018-09-26T11:39:37.883Z,34.89
2018-09-26T11:42:05.470Z,42.01
2018-09-26T11:44:33.229Z,37.91
2018-09-26T11:47:00.758Z,29.32
2018-09-26T11:49:28.330Z,26.93
2018-09-26T11:51:55.941Z,27.50
2018-09-26T11:54:23.521Z,26.71
2018-09-26T11:56:51.105Z,25.09
2018-09-26T11:59:18.659Z,25.04
2018-09-26T12:01:46.501Z,24.91
2018-09-26T12:04:14.151Z,24.80
2018-09-26T12:06:41.677Z,23.79
2018-09-26T12:09:09.707Z,22.65
2018-09-26T12:11:37.477Z,21.02
2018-09-26T12:14:05.108Z,21.44
2018-09-26T12:16:32.765Z,20.61
2018-09-26T12:19:00.409Z,19.81
2018-09-26T12:21:30.632Z,19.50
2018-09-26T12:23:55.968Z,20.51
2018-09-26T12:26:23.519Z,19.79
2018-09-26T12:28:51.066Z,19.50
2018-09-26T12:31:18.731Z,18.17
2018-09-26T12:33:46.303Z,17.50
2018-09-26T12:36:14.053Z,18.15
2018-09-26T12:38:41.696Z,17.88
2018-09-26T12:41:09.337Z,17.95
2018-09-26T12:43:36.945Z,17.62
2018-09-26T12:46:04.591Z,16.27
2018-09-26T12:48:32.131Z,16.09
2018-09-26T12:50:59.977Z,16.41
2018-09-26T12:53:27.533Z,16.40
2018-09-26T12:55:55.096Z,15.75
2018-09-26T12:58:22.761Z,16.12
2018-09-26T13:00:50.341Z,16.57
2018-09-26T13:03:17.967Z,15.49
2018-09-26T13:05:45.584Z,15.75
2018-09-26T13:08:13.159Z,16.28
2018-09-26T13:10:41.219Z,16.08
2018-09-26T13:13:08.927Z,14.84
2018-09-26T13:15:36.486Z,15.46
2018-09-26T13:18:04.076Z,16.65
2018-09-26T13:20:31.971Z,15.17
2018-09-26T13:22:59.523Z,14.74
2018-09-26T13:25:27.301Z,16.10
2018-09-26T13:27:54.807Z,18.41
2018-09-26T13:30:22.361Z,15.20
2018-09-26T13:32:49.911Z,15.78
2018-09-26T13:35:17.463Z,15.59
2018-09-26T13:37:45.039Z,16.76
2018-09-26T13:40:28.414Z,16.72
2018-09-26T13:42:57.528Z,15.03
2018-09-26T13:45:25.234Z,16.99
2018-09-26T13:47:52.917Z,18.51
2018-09-26T13:50:21.542Z,16.70
2018-09-26T13:52:49.059Z,17.41
2018-09-26T13:55:16.747Z,16.00
2018-09-26T13:57:44.377Z,15.83
2018-09-26T14:00:14.727Z,16.17
2018-09-26T14:02:42.340Z,17.04
2018-09-26T14:05:09.949Z,17.41
2018-09-26T14:07:37.566Z,18.83
2018-09-26T14:10:05.167Z,19.12
2018-09-26T14:12:32.714Z,18.76
2018-09-26T14:15:00.247Z,19.73
2018-09-26T14:17:27.843Z,19.36
2018-09-26T14:19:55.418Z,19.16
2018-09-26T14:22:23.074Z,19.89
2018-09-26T14:24:50.800Z,19.74
2018-09-26T14:27:18.387Z,18.47
2018-09-26T14:29:45.929Z,19.43
2018-09-26T14:32:13.669Z,18.66
2018-09-26T14:34:41.264Z,19.43
2018-09-26T14:37:08.951Z,19.77
2018-09-26T14:39:36.604Z,20.48
2018-09-26T14:42:04.027Z,20.14
2018-09-26T14:44:31.733Z,22.04
2018-09-26T14:46:59.306Z,21.76
2018-09-26T14:49:26.872Z,22.02
2018-09-26T14:51:54.419Z,22.64
2018-09-26T14:54:21.987Z,24.06
2018-09-26T14:56:49.550Z,21.74
2018-09-26T14:59:18.071Z,23.66
2018-09-26T15:01:46.222Z,22.93
2018-09-26T15:04:13.965Z,33.04
2018-09-26T15:06:41.523Z,34.66
2018-09-26T15:09:09.082Z,34.50
2018-09-26T15:11:36.679Z,34.75
2018-09-26T15:14:04.292Z,35.19
2018-09-26T15:16:31.810Z,29.14
2018-09-26T15:18:59.655Z,35.26
2018-09-26T15:21:27.231Z,34.48
2018-09-26T15:23:54.991Z,35.13
2018-09-26T15:26:22.569Z,27.08
2018-09-26T15:28:50.515Z,34.84
2018-09-26T15:31:18.040Z,33.72
2018-09-26T15:33:45.653Z,34.14
2018-09-26T15:36:13.286Z,34.22
2018-09-26T15:38:40.839Z,31.32
2018-09-26T15:41:08.876Z,33.66
2018-09-26T15:43:36.439Z,29.02
2018-09-26T15:46:04.006Z,24.43
2018-09-26T15:48:31.774Z,31.21
2018-09-26T15:50:59.296Z,30.39
2018-09-26T15:53:26.890Z,28.67
2018-09-26T15:55:54.575Z,31.10
2018-09-26T15:58:22.229Z,31.33
2018-09-26T16:00:49.848Z,27.76
2018-09-26T16:03:17.567Z,31.64
2018-09-26T16:05:45.150Z,26.28
2018-09-26T16:08:12.819Z,24.97
2018-09-26T16:10:41.107Z,25.28
2018-09-26T16:13:08.781Z,26.18
2018-09-26T16:15:36.451Z,26.60
2018-09-26T16:18:03.967Z,26.61
2018-09-26T16:20:31.525Z,26.28
2018-09-26T16:22:59.027Z,25.79
2018-09-26T16:25:26.755Z,25.99
2018-09-26T16:27:54.249Z,26.39
2018-09-26T16:30:21.871Z,27.63
2018-09-26T16:32:49.348Z,27.71
2018-09-26T16:35:16.895Z,27.65
2018-09-26T16:37:44.613Z,29.28
2018-09-26T16:40:12.179Z,30.30
2018-09-26T16:42:39.712Z,30.98
2018-09-26T16:45:07.783Z,32.33
2018-09-26T16:47:35.406Z,33.50
2018-09-26T16:50:03.231Z,34.76
2018-09-26T16:52:30.821Z,35.55
2018-09-26T16:54:58.490Z,35.56
2018-09-26T16:57:26.098Z,36.77
2018-09-26T16:59:53.617Z,38.18
2018-09-26T17:02:21.227Z,38.71
2018-09-26T17:04:48.708Z,37.71
2018-09-26T17:07:16.305Z,40.52
2018-09-26T17:09:43.916Z,40.63
2018-09-26T17:12:11.627Z,40.33
2018-09-26T17:14:39.039Z,40.92
2018-09-26T17:17:06.784Z,40.85
2018-09-26T17:19:34.313Z,41.74
2018-09-26T17:22:01.889Z,48.05
2018-09-26T17:24:29.759Z,41.41
2018-09-26T17:26:57.769Z,41.85
2018-09-26T17:29:25.412Z,42.32
2018-09-26T17:31:53.005Z,42.29
2018-09-26T17:34:20.656Z,43.29
2018-09-26T17:36:48.810Z,43.53
2018-09-26T17:39:16.430Z,43.65
2018-09-26T17:41:44.156Z,45.21
2018-09-26T17:44:12.237Z,44.81
2018-09-26T17:46:39.832Z,44.88
2018-09-26T17:49:07.521Z,45.29
2018-09-26T17:51:35.027Z,45.23
2018-09-26T17:54:02.587Z,45.51
2018-09-26T17:56:30.419Z,45.44
2018-09-26T17:58:58.125Z,45.42
2018-09-26T18:01:25.899Z,45.39
2018-09-26T18:03:55.250Z,45.55
2018-09-26T18:06:22.829Z,46.02
2018-09-26T18:08:50.353Z,47.13
2018-09-26T18:11:18.117Z,48.17
2018-09-26T18:13:46.083Z,48.32
2018-09-26T18:16:13.714Z,48.71
2018-09-26T18:18:41.431Z,49.04
2018-09-26T18:21:09.276Z,51.31
2018-09-26T18:23:37.467Z,51.55
2018-09-26T18:26:05.297Z,51.32
2018-09-26T18:28:33.052Z,50.72
2018-09-26T18:31:00.732Z,50.28
2018-09-26T18:33:28.336Z,50.23
2018-09-26T18:35:56.377Z,50.50
2018-09-26T18:38:23.940Z,50.90
2018-09-26T18:40:51.521Z,50.85
2018-09-26T18:43:19.788Z,50.79
2018-09-26T18:45:47.357Z,50.74
2018-09-26T18:48:15.048Z,51.56
2018-09-26T18:50:42.722Z,53.39
2018-09-26T18:53:10.398Z,53.26
2018-09-26T18:55:38.081Z,52.85
2018-09-26T18:58:05.702Z,53.14
2018-09-26T19:00:33.447Z,53.19
2018-09-26T19:03:01.010Z,52.81
2018-09-26T19:05:28.613Z,53.21
2018-09-26T19:07:56.249Z,53.72
2018-09-26T19:10:23.802Z,54.20
2018-09-26T19:12:51.546Z,54.54
2018-09-26T19:15:19.337Z,55.03
2018-09-26T19:17:47.027Z,53.39
2018-09-26T19:20:14.929Z,53.68
2018-09-26T19:22:42.524Z,53.35
2018-09-26T19:25:10.448Z,53.58
2018-09-26T19:27:38.202Z,53.59
2018-09-26T19:30:05.772Z,54.67
2018-09-26T19:32:33.403Z,54.65
2018-09-26T19:35:01.967Z,53.97
2018-09-26T19:37:29.863Z,54.19
2018-09-26T19:39:57.424Z,55.57
2018-09-26T19:42:25.099Z,55.48
2018-09-26T19:44:52.671Z,55.50
2018-09-26T19:47:21.960Z,55.66
2018-09-26T19:50:02.352Z,56.22
2018-09-26T19:52:30.109Z,57.12
2018-09-26T19:54:57.904Z,57.49
2018-09-26T19:57:25.631Z,57.73
2018-09-26T19:59:53.298Z,58.57
2018-09-26T20:02:21.741Z,58.33
2018-09-26T20:04:49.510Z,58.12
2018-09-26T20:07:17.225Z,58.43
2018-09-26T20:09:44.823Z,59.40
2018-09-26T20:12:12.399Z,58.75
2018-09-26T20:14:40.012Z,60.46
2018-09-26T20:17:08.811Z,60.83
2018-09-26T20:19:36.620Z,62.25
2018-09-26T20:22:04.587Z,63.10
2018-09-26T20:24:32.135Z,63.58
2018-09-26T20:26:59.776Z,65.25
2018-09-26T20:29:27.445Z,66.42
2018-09-26T20:31:54.984Z,66.73
2018-09-26T20:34:22.503Z,67.03
2018-09-26T20:36:50.054Z,67.19
2018-09-26T20:39:17.672Z,67.99
2018-09-26T20:41:45.298Z,68.24
2018-09-26T20:44:12.821Z,68.37
2018-09-26T20:46:40.409Z,69.18
2018-09-26T20:49:08.031Z,69.25
2018-09-26T20:51:35.734Z,69.70
2018-09-26T20:54:03.992Z,70.20
2018-09-26T20:56:31.593Z,70.58
2018-09-26T20:58:59.427Z,71.00
2018-09-26T21:01:27.155Z,72.27
2018-09-26T21:03:55.711Z,72.86
2018-09-26T21:06:23.607Z,73.07
2018-09-26T21:08:51.161Z,73.41
2018-09-26T21:11:18.742Z,73.26
2018-09-26T21:13:46.307Z,73.41
2018-09-26T21:16:13.914Z,73.23
2018-09-26T21:18:41.528Z,73.85
2018-09-26T21:21:09.182Z,73.87
2018-09-26T21:23:37.024Z,73.90
2018-09-26T21:26:04.614Z,74.32
2018-09-26T21:28:32.918Z,73.87
2018-09-26T21:31:02.743Z,73.14
2018-09-26T21:33:30.872Z,73.39
2018-09-26T21:35:58.523Z,73.71
2018-09-26T21:38:26.171Z,73.84
2018-09-26T21:40:53.868Z,73.56
2018-09-26T21:43:21.429Z,73.55
2018-09-26T21:45:49.011Z,73.45
2018-09-26T21:48:16.611Z,73.21
2018-09-26T21:50:44.599Z,72.76
2018-09-26T21:53:12.263Z,74.38
2018-09-26T21:55:39.899Z,74.00
2018-09-26T21:58:07.590Z,73.88
2018-09-26T22:00:35.287Z,74.67
2018-09-26T22:03:02.884Z,74.90
2018-09-26T22:05:30.547Z,75.25
2018-09-26T22:07:58.205Z,75.39
2018-09-26T22:10:25.773Z,75.94
2018-09-26T22:12:53.459Z,76.78
2018-09-26T22:15:23.275Z,76.43
2018-09-26T22:17:51.144Z,76.45
2018-09-26T22:20:18.952Z,76.90
2018-09-26T22:22:46.695Z,77.11
2018-09-26T22:25:15.107Z,77.50
2018-09-26T22:27:42.733Z,77.72
2018-09-26T22:30:10.522Z,77.80
2018-09-26T22:32:38.258Z,78.26
2018-09-26T22:35:05.888Z,78.67
2018-09-26T22:37:33.455Z,78.92
2018-09-26T22:40:01.156Z,79.19
2018-09-26T22:42:28.741Z,79.49
2018-09-26T22:44:56.365Z,79.65
2018-09-26T22:47:24.012Z,80.28
2018-09-26T22:49:51.584Z,80.43
2018-09-26T22:52:19.140Z,81.05
2018-09-26T22:54:46.904Z,80.85
2018-09-26T22:57:14.592Z,80.89
2018-09-26T22:59:42.190Z,81.10
2018-09-26T23:02:09.864Z,81.37
2018-09-26T23:04:37.439Z,81.38
2018-09-26T23:07:05.038Z,82.06
2018-09-26T23:09:32.596Z,82.20
2018-09-26T23:12:00.376Z,82.65
2018-09-26T23:14:28.001Z,83.45
2018-09-26T23:16:55.770Z,83.87
2018-09-26T23:19:23.311Z,84.30
2018-09-26T23:21:50.982Z,84.21
2018-09-26T23:24:18.603Z,84.48
2018-09-26T23:26:46.173Z,84.58
2018-09-26T23:29:13.870Z,84.99
2018-09-26T23:31:41.648Z,85.29
2018-09-26T23:34:09.264Z,85.18
2018-09-26T23:36:36.898Z,85.76
2018-09-26T23:39:06.033Z,86.02
2018-09-26T23:41:33.717Z,86.00
2018-09-26T23:44:01.308Z,86.34
2018-09-26T23:46:29.012Z,85.83
2018-09-26T23:48:56.622Z,86.86
2018-09-26T23:51:24.238Z,86.09
2018-09-26T23:53:51.957Z,86.71
2018-09-26T23:56:19.597Z,87.09
2018-09-26T23:58:47.218Z,87.22
